createdAt,value
2022-09-26T00:03:27.246Z,1.58
2022-09-26T00:08:12.245Z,1.70
2022-09-26T00:12:58.258Z,1.50
2022-09-26T00:17:43.459Z,1.80
2022-09-26T00:22:31.812Z,1.73
2022-09-26T00:27:16.847Z,1.63
2022-09-26T00:32:02.194Z,1.40
2022-09-26T00:36:47.427Z,1.42
2022-09-26T00:41:35.294Z,1.70
2022-09-26T00:46:31.319Z,1.30
2022-09-26T00:51:17.081Z,1.60
2022-09-26T00:56:09.830Z,1.40
2022-09-26T01:00:58.857Z,1.45
2022-09-26T01:05:44.084Z,1.40
2022-09-26T01:10:29.955Z,1.30
2022-09-26T01:15:15.667Z,1.23
2022-09-26T01:20:17.568Z,1.30
2022-09-26T01:25:18.598Z,1.40
2022-09-26T01:30:17.963Z,1.30
2022-09-26T01:35:13.085Z,1.40
2022-09-26T01:40:06.364Z,1.48
2022-09-26T01:44:56.377Z,2.55
2022-09-26T01:49:52.230Z,2.35
2022-09-26T01:54:40.911Z,2.00
2022-09-26T01:59:29.482Z,2.25
2022-09-26T02:04:20.690Z,2.83
2022-09-26T02:09:13.254Z,2.97
2022-09-26T02:14:04.264Z,2.97
2022-09-26T02:18:53.144Z,3.10
2022-09-26T02:23:38.818Z,2.15
2022-09-26T02:28:26.510Z,1.70
2022-09-26T02:33:12.330Z,1.92
2022-09-26T02:37:57.424Z,4.20
2022-09-26T02:42:51.974Z,6.25
2022-09-26T02:48:08.127Z,3.30
2022-09-26T02:53:04.804Z,2.03
2022-09-26T02:58:04.248Z,2.38
2022-09-26T03:02:58.363Z,3.00
2022-09-26T03:07:49.816Z,3.10
2022-09-26T03:12:36.877Z,3.05
2022-09-26T03:17:23.575Z,3.85
2022-09-26T03:22:09.114Z,3.45
2022-09-26T03:26:58.534Z,4.47
2022-09-26T03:31:45.335Z,4.47
2022-09-26T03:36:32.367Z,5.40
2022-09-26T03:41:17.804Z,5.15
2022-09-26T03:46:09.644Z,7.07
2022-09-26T03:55:39.639Z,8.50
2022-09-26T04:00:25.090Z,7.25
2022-09-26T04:05:13.147Z,8.48
2022-09-26T04:09:58.531Z,9.82
2022-09-26T04:14:43.708Z,8.98
2022-09-26T04:19:29.024Z,8.63
2022-09-26T04:24:19.807Z,9.10
2022-09-26T04:29:05.470Z,9.15
2022-09-26T04:33:50.691Z,9.52
2022-09-26T04:38:36.050Z,10.07
2022-09-26T04:43:23.645Z,11.20
2022-09-26T04:48:08.869Z,9.20
2022-09-26T04:52:53.801Z,9.43
2022-09-26T04:57:39.196Z,9.07
2022-09-26T05:02:26.935Z,9.00
2022-09-26T05:07:12.315Z,9.18
2022-09-26T05:11:57.353Z,9.90
2022-09-26T05:16:42.667Z,9.32
2022-09-26T05:21:30.349Z,10.13
2022-09-26T05:26:23.589Z,10.05
2022-09-26T05:31:08.857Z,9.70
2022-09-26T05:35:55.007Z,9.07
2022-09-26T05:40:55.123Z,8.50
2022-09-26T05:45:40.910Z,8.32
2022-09-26T05:50:25.943Z,8.18
2022-09-26T05:55:12.180Z,7.93
2022-09-26T05:59:59.828Z,8.15
2022-09-26T06:04:45.076Z,8.10
2022-09-26T06:09:30.352Z,7.07
2022-09-26T06:14:15.657Z,7.25
2022-09-26T06:19:03.300Z,7.43
2022-09-26T06:23:49.483Z,6.28
2022-09-26T06:28:34.503Z,7.38
2022-09-26T06:33:19.808Z,7.53
2022-09-26T06:38:07.604Z,7.47
2022-09-26T06:42:52.896Z,7.95
2022-09-26T06:47:38.185Z,9.68
2022-09-26T06:52:23.513Z,7.32
2022-09-26T06:57:15.308Z,7.13
2022-09-26T07:06:46.438Z,7.43
2022-09-26T07:11:42.157Z,8.77
2022-09-26T07:16:39.050Z,6.45
2022-09-26T07:21:24.278Z,6.47
2022-09-26T07:26:10.025Z,6.38
2022-09-26T07:30:58.978Z,6.03
2022-09-26T07:35:47.268Z,6.55
2022-09-26T07:40:32.478Z,8.05
2022-09-26T07:45:27.936Z,7.65
2022-09-26T07:50:13.576Z,7.50
2022-09-26T07:55:01.493Z,7.88
2022-09-26T07:59:46.486Z,8.77
2022-09-26T08:04:31.891Z,8.20
2022-09-26T08:09:16.935Z,8.10
2022-09-26T08:14:04.884Z,7.53
2022-09-26T08:18:50.110Z,8.05
2022-09-26T08:23:35.547Z,7.55
2022-09-26T08:28:21.153Z,8.00
2022-09-26T08:33:12.701Z,8.18
2022-09-26T08:37:58.267Z,8.27
2022-09-26T08:42:55.934Z,8.32
2022-09-26T08:47:50.014Z,7.22
2022-09-26T08:52:45.070Z,7.38
2022-09-26T08:57:40.696Z,6.68
2022-09-26T09:02:33.712Z,5.50
2022-09-26T09:07:24.580Z,4.68
2022-09-26T09:12:24.906Z,3.83
2022-09-26T09:17:23.694Z,3.78
2022-09-26T09:22:46.536Z,4.30
2022-09-26T09:27:53.916Z,4.43
2022-09-26T09:32:50.408Z,4.43
2022-09-26T09:37:46.591Z,4.05
2022-09-26T09:42:43.645Z,3.60
2022-09-26T09:47:31.752Z,3.17
2022-09-26T09:52:31.172Z,3.40
2022-09-26T09:57:37.015Z,3.28
2022-09-26T10:02:37.158Z,1.80
2022-09-26T10:07:22.552Z,1.17
2022-09-26T10:12:16.373Z,1.20
2022-09-26T10:17:21.443Z,0.90
2022-09-26T10:22:15.496Z,0.77
2022-09-26T10:27:00.582Z,1.00
2022-09-26T10:31:48.351Z,0.98
2022-09-26T10:36:34.931Z,1.00
2022-09-26T10:41:28.498Z,0.77
2022-09-26T10:46:16.619Z,0.80
2022-09-26T10:51:02.069Z,0.90
2022-09-26T10:55:51.390Z,0.63
2022-09-26T11:00:45.057Z,0.80
2022-09-26T11:05:42.466Z,0.70
2022-09-26T11:10:34.422Z,0.70
2022-09-26T11:15:19.538Z,0.82
2022-09-26T11:20:10.800Z,0.70
2022-09-26T11:25:06.431Z,0.83
2022-09-26T11:29:56.596Z,0.80
2022-09-26T11:34:41.642Z,0.90
2022-09-26T11:39:49.021Z,0.90
2022-09-26T11:44:49.325Z,0.70
2022-09-26T11:49:56.266Z,0.65
2022-09-26T11:54:59.076Z,0.73
2022-09-26T12:00:06.671Z,0.90
2022-09-26T12:05:27.209Z,0.77
2022-09-26T12:10:30.577Z,1.03
2022-09-26T12:15:24.753Z,0.90
2022-09-26T12:20:22.756Z,0.90
2022-09-26T12:25:36.287Z,0.82
2022-09-26T12:30:25.803Z,1.00
2022-09-26T12:35:28.203Z,0.70
2022-09-26T12:40:22.474Z,0.85
2022-09-26T12:45:29.776Z,0.80
2022-09-26T12:50:29.408Z,1.02
2022-09-26T12:55:35.094Z,0.93
2022-09-26T13:00:23.336Z,0.75
2022-09-26T13:05:39.906Z,0.98
2022-09-26T13:10:41.129Z,0.85
2022-09-26T13:15:35.488Z,1.10
2022-09-26T13:20:27.522Z,1.08
2022-09-26T13:25:20.171Z,1.42
2022-09-26T13:30:11.093Z,0.80
2022-09-26T13:35:04.399Z,1.00
2022-09-26T13:39:55.103Z,1.08
2022-09-26T13:44:57.664Z,0.87
2022-09-26T13:49:57.098Z,1.00
2022-09-26T13:54:59.192Z,0.90
2022-09-26T13:59:55.214Z,1.33
2022-09-26T14:04:41.939Z,0.70
2022-09-26T14:09:47.634Z,1.67
2022-09-26T14:14:50.022Z,0.93
2022-09-26T14:19:39.414Z,1.05
2022-09-26T14:24:34.909Z,1.20
2022-09-26T14:29:33.325Z,1.10
2022-09-26T14:34:25.426Z,1.23
2022-09-26T14:39:27.427Z,1.20
2022-09-26T14:44:23.726Z,0.93
2022-09-26T14:49:11.505Z,0.90
2022-09-26T14:54:01.796Z,1.02
2022-09-26T14:58:52.388Z,1.10
2022-09-26T15:03:41.218Z,1.20
2022-09-26T15:08:28.413Z,1.27
2022-09-26T15:13:25.385Z,0.98
2022-09-26T15:18:17.394Z,1.30
2022-09-26T15:23:14.042Z,1.23
2022-09-26T15:27:59.726Z,1.77
2022-09-26T15:32:46.577Z,1.30
2022-09-26T15:37:34.130Z,1.30
2022-09-26T15:42:42.923Z,1.70
2022-09-26T15:47:45.006Z,1.98
2022-09-26T15:52:30.530Z,1.70
2022-09-26T15:57:16.276Z,1.40
2022-09-26T16:02:04.728Z,1.50
2022-09-26T16:06:58.590Z,1.50
2022-09-26T16:11:50.295Z,2.00
2022-09-26T16:16:37.824Z,1.33
2022-09-26T16:21:27.993Z,2.00
2022-09-26T16:26:24.644Z,1.70
2022-09-26T16:31:23.375Z,1.98
2022-09-26T16:36:20.147Z,1.90
2022-09-26T16:41:11.215Z,2.00
2022-09-26T16:46:03.313Z,1.65
2022-09-26T16:50:48.644Z,1.48
2022-09-26T16:55:37.719Z,1.63
2022-09-26T17:00:40.365Z,1.67
2022-09-26T17:05:27.018Z,1.77
2022-09-26T17:10:12.713Z,1.42
2022-09-26T17:14:58.609Z,1.08
2022-09-26T17:19:55.525Z,1.10
2022-09-26T17:24:45.014Z,1.40
2022-09-26T17:29:33.493Z,1.73
2022-09-26T17:34:19.236Z,1.65
2022-09-26T17:39:08.313Z,1.45
2022-09-26T17:43:59.151Z,2.10
2022-09-26T17:48:44.726Z,1.77
2022-09-26T17:53:40.159Z,1.95
2022-09-26T17:58:27.773Z,1.80
2022-09-26T18:03:23.514Z,1.50
2022-09-26T18:08:17.003Z,1.65
2022-09-26T18:13:09.423Z,1.60
2022-09-26T18:18:01.632Z,1.58
2022-09-26T18:22:49.578Z,1.75
2022-09-26T18:27:40.652Z,1.60
2022-09-26T18:32:31.915Z,2.17
2022-09-26T18:37:19.633Z,2.05
2022-09-26T18:42:09.351Z,3.10
2022-09-26T18:46:57.181Z,2.25
2022-09-26T18:51:46.647Z,2.17
2022-09-26T18:56:46.598Z,2.30
2022-09-26T19:01:34.378Z,2.50
2022-09-26T19:06:23.336Z,3.70
2022-09-26T19:11:13.192Z,2.45
2022-09-26T19:16:00.938Z,2.85
2022-09-26T19:20:46.574Z,1.95
2022-09-26T19:25:31.741Z,1.98
2022-09-26T19:30:20.088Z,2.88
2022-09-26T19:35:10.779Z,2.20
2022-09-26T19:39:57.823Z,1.73
2022-09-26T19:44:42.838Z,1.80
2022-09-26T19:49:32.202Z,1.33
2022-09-26T19:54:21.483Z,1.50
2022-09-26T19:59:06.765Z,1.30
2022-09-26T20:03:52.831Z,1.80
2022-09-26T20:08:38.183Z,2.00
2022-09-26T20:13:26.362Z,3.90
2022-09-26T20:18:16.662Z,2.55
2022-09-26T20:23:02.059Z,2.72
2022-09-26T20:27:47.411Z,2.95
2022-09-26T20:32:35.173Z,2.60
2022-09-26T20:37:23.604Z,2.67
2022-09-26T20:42:10.431Z,3.22
2022-09-26T20:47:00.016Z,2.80
2022-09-26T20:51:48.359Z,3.40
2022-09-26T20:56:33.723Z,3.47
2022-09-26T21:01:19.960Z,4.43
2022-09-26T21:06:05.273Z,4.47
2022-09-26T21:10:52.913Z,4.90
2022-09-26T21:15:41.794Z,4.25
2022-09-26T21:20:29.056Z,4.70
2022-09-26T21:25:19.467Z,5.00
2022-09-26T21:30:07.526Z,4.88
2022-09-26T21:35:00.936Z,4.22
2022-09-26T21:39:46.068Z,4.63
2022-09-26T21:44:35.006Z,4.70
2022-09-26T21:49:22.668Z,5.30
2022-09-26T21:54:12.707Z,5.43
2022-09-26T21:58:58.974Z,5.63
2022-09-26T22:03:44.294Z,5.88
2022-09-26T22:08:32.158Z,5.70
2022-09-26T22:13:17.248Z,5.78
2022-09-26T22:18:03.230Z,5.88
2022-09-26T22:22:48.263Z,5.78
2022-09-26T22:27:37.596Z,5.78
2022-09-26T22:32:22.603Z,5.22
2022-09-26T22:37:08.598Z,5.50
2022-09-26T22:41:54.462Z,4.75
2022-09-26T22:46:44.690Z,5.18
2022-09-26T22:51:30.210Z,4.57
2022-09-26T22:56:18.630Z,4.53
2022-09-26T23:01:04.743Z,5.00
2022-09-26T23:05:53.206Z,4.78
2022-09-26T23:10:39.107Z,5.47
2022-09-26T23:15:24.738Z,5.43
2022-09-26T23:20:11.600Z,5.53
2022-09-26T23:25:00.427Z,5.18
2022-09-26T23:29:46.305Z,5.65
2022-09-26T23:34:32.318Z,5.38
2022-09-26T23:39:18.244Z,5.43
2022-09-26T23:44:06.837Z,5.20
2022-09-26T23:48:52.567Z,5.10
2022-09-26T23:53:39.088Z,4.93
2022-09-26T23:58:24.774Z,4.75
